Time;durP1;ratioP1;P1;durP2;ratioP2;P2;SDS_P1;SDS_P2;PMS_P1;PMS_P2;Temp;Humidity;BMP_temperature;BMP_pressure;BME280_temperature;BME280_humidity;BME280_pressure;Samples;Min_cycle;Max_cycle;Signal;HPM_P1;HPM_P2
2023/02/26 00:01:59;;;;;;;0.10;0.10;;;;;;;3.76;62.76;102039.47;5081181;28;20491;-85
2023/02/26 00:04:26;;;;;;;0.20;0.20;;;;;;;3.75;62.76;102040.34;5084222;28;20147;-85
2023/02/26 00:06:52;;;;;;;0.10;0.10;;;;;;;3.73;62.84;102042.03;5085063;28;20043;-84
2023/02/26 00:09:18;;;;;;;0.20;0.20;;;;;;;3.72;62.97;102046.38;5088823;28;20146;-84
2023/02/26 00:11:46;;;;;;;0.20;0.20;;;;;;;3.71;62.88;102054.19;5085358;28;20043;-85
2023/02/26 00:14:14;;;;;;;0.90;0.90;;;;;;;3.71;63.34;102054.19;5090499;28;20032;-85
2023/02/26 00:16:41;;;;;;;0.20;0.20;;;;;;;3.70;63.23;102053.31;5075821;28;20034;-84
2023/02/26 00:19:09;;;;;;;0.20;0.20;;;;;;;3.71;63.59;102059.44;5085994;28;20466;-83
2023/02/26 00:21:35;;;;;;;0.15;0.15;;;;;;;3.69;63.54;102066.41;5093511;28;20020;-85
2023/02/26 00:24:02;;;;;;;0.10;0.10;;;;;;;3.68;63.21;102069.84;5089219;28;20411;-84
2023/02/26 00:26:30;;;;;;;0.13;0.13;;;;;;;3.67;63.15;102073.31;5087391;28;20016;-85
2023/02/26 00:28:56;;;;;;;0.20;0.20;;;;;;;3.66;63.21;102072.41;5097504;28;20074;-83
2023/02/26 00:31:23;;;;;;;0.15;0.15;;;;;;;3.68;63.77;102077.72;5104404;28;20027;-84
2023/02/26 00:33:51;;;;;;;0.13;0.13;;;;;;;3.68;63.46;102075.97;5081055;28;20115;-85
2023/02/26 00:36:23;;;;;;;0.20;0.20;;;;;;;3.76;63.35;102088.41;5074637;28;20047;-85
2023/02/26 00:41:48;;;;;;;0.10;0.10;;;;;;;3.87;62.74;102093.09;5138731;27;20108;-83
2023/02/26 00:44:14;;;;;;;0.10;0.10;;;;;;;3.97;62.57;102090.75;5126942;27;20028;-82
2023/02/26 00:46:48;;;;;;;0.20;0.20;;;;;;;4.09;62.88;102100.66;5128036;27;20032;-82
2023/02/26 00:55:18;;;;;;;0.20;0.20;;;;;;;4.29;62.12;102102.09;5105503;27;20380;-80
2023/02/26 00:57:45;;;;;;;0.20;0.20;;;;;;;4.31;61.30;102099.50;5120768;28;20043;-81
2023/02/26 01:00:12;;;;;;;0.10;0.10;;;;;;;4.38;61.31;102106.69;5113843;28;20496;-82
2023/02/26 01:02:39;;;;;;;0.10;0.10;;;;;;;4.47;61.31;102108.66;5102916;28;20058;-85
2023/02/26 01:05:06;;;;;;;0.20;0.20;;;;;;;4.49;61.14;102104.34;5089493;28;20033;-84
2023/02/26 01:07:43;;;;;;;0.20;0.20;;;;;;;4.54;60.53;102106.22;5082762;28;20036;-82
2023/02/26 01:10:10;;;;;;;0.10;0.10;;;;;;;4.52;60.74;102110.56;5089611;28;20178;-82
2023/02/26 01:12:37;;;;;;;0.10;0.10;;;;;;;4.52;60.64;102115.81;5089052;28;20028;-80
2023/02/26 01:15:05;;;;;;;0.55;0.40;;;;;;;4.53;60.32;102112.31;5088710;28;20043;-81
2023/02/26 01:20:27;;;;;;;0.10;0.10;;;;;;;4.54;60.01;102136.84;5089634;27;20601;-82
2023/02/26 01:23:00;;;;;;;0.10;0.10;;;;;;;4.44;60.43;102138.34;5090451;28;20555;-82
2023/02/26 01:25:29;;;;;;;;;;;;;;;4.48;60.33;102144.56;5084344;28;20025;-82
2023/02/26 01:27:56;;;;;;;0.10;0.10;;;;;;;4.29;60.70;102137.94;5083583;28;19914;-82
2023/02/26 01:30:24;;;;;;;0.20;0.20;;;;;;;4.18;60.25;102143.78;5090191;28;20028;-82
2023/02/26 01:33:16;;;;;;;0.10;0.10;;;;;;;4.13;61.08;102148.00;5090830;28;20585;-82
2023/02/26 01:35:47;;;;;;;0.30;0.30;;;;;;;4.05;60.76;102149.56;5090215;28;20515;-82
2023/02/26 01:38:27;;;;;;;0.20;0.20;;;;;;;4.01;61.13;102158.16;5090534;28;20038;-80
2023/02/26 01:47:00;;;;;;;0.10;0.10;;;;;;;3.78;60.99;102170.63;5093066;27;1869165;-84
2023/02/26 01:49:28;;;;;;;0.10;0.10;;;;;;;3.63;61.11;102179.81;5111767;28;20032;-84
2023/02/26 01:51:56;;;;;;;0.10;0.10;;;;;;;3.55;61.04;102178.66;5110509;28;20027;-85
2023/02/26 01:54:27;;;;;;;0.10;0.10;;;;;;;3.46;61.03;102174.03;5110365;28;20436;-86
2023/02/26 01:57:03;;;;;;;0.10;0.10;;;;;;;3.40;60.15;102181.69;5093686;28;20032;-84
2023/02/26 01:59:31;;;;;;;0.20;0.20;;;;;;;3.33;59.65;102183.25;5111646;28;20600;-84
2023/02/26 02:02:01;;;;;;;0.10;0.10;;;;;;;3.29;59.71;102185.72;5129960;28;20042;-84
2023/02/26 02:04:29;;;;;;;0.10;0.10;;;;;;;3.22;59.89;102185.53;5133935;28;20058;-83
2023/02/26 02:06:55;;;;;;;0.20;0.20;;;;;;;3.17;60.03;102194.97;5124189;28;20478;-84
2023/02/26 02:09:21;;;;;;;0.10;0.10;;;;;;;3.12;59.19;102195.69;5122260;28;20024;-85
2023/02/26 02:12:01;;;;;;;0.20;0.20;;;;;;;3.10;59.75;102198.22;5124577;28;20483;-84
2023/02/26 02:14:44;;;;;;;0.10;0.10;;;;;;;3.04;58.99;102198.03;5119051;28;20391;-84
2023/02/26 02:29:15;;;;;;;0.20;0.20;;;;;;;2.82;60.07;102207.78;5130998;27;20050;-85
2023/02/26 02:34:32;;;;;;;0.20;0.20;;;;;;;2.69;60.02;102213.44;5110206;27;20132;-84
2023/02/26 02:37:09;;;;;;;0.20;0.20;;;;;;;2.65;60.20;102219.41;5110715;28;20043;-84
2023/02/26 02:39:50;;;;;;;0.20;0.20;;;;;;;2.63;60.07;102221.06;5105779;28;20036;-84
2023/02/26 02:42:28;;;;;;;0.13;0.13;;;;;;;2.58;60.27;102227.03;5091548;28;20135;-85
2023/02/26 02:45:02;;;;;;;0.20;0.20;;;;;;;2.53;60.44;102220.75;5094743;28;20050;-84
2023/02/26 02:47:33;;;;;;;0.10;0.10;;;;;;;2.49;60.81;102229.31;5097830;28;20032;-83
2023/02/26 02:50:08;;;;;;;0.10;0.10;;;;;;;2.48;60.54;102230.19;5106687;28;20083;-83
2023/02/26 02:52:45;;;;;;;0.10;0.10;;;;;;;2.43;60.57;102231.75;5119507;28;20054;-85
2023/02/26 02:55:19;;;;;;;0.20;0.20;;;;;;;2.40;60.70;102232.50;5110502;28;20085;-83
2023/02/26 02:57:53;;;;;;;0.20;0.20;;;;;;;2.37;60.69;102229.78;5108327;28;20028;-83
2023/02/26 03:00:23;;;;;;;0.10;0.10;;;;;;;2.33;60.92;102235.75;5109055;28;20171;-83
2023/02/26 03:03:01;;;;;;;0.10;0.10;;;;;;;2.31;61.19;102234.78;5092952;28;20385;-83
2023/02/26 03:05:27;;;;;;;0.20;0.20;;;;;;;2.26;60.88;102234.63;5101068;28;20085;-83
2023/02/26 03:07:57;;;;;;;0.10;0.10;;;;;;;2.27;61.02;102245.97;5114536;28;20028;-84
2023/02/26 03:10:23;;;;;;;0.20;0.20;;;;;;;2.22;60.85;102247.53;5113535;28;20087;-84
2023/02/26 03:12:50;;;;;;;0.20;0.20;;;;;;;2.21;60.87;102241.41;5113672;28;20023;-84
2023/02/26 03:15:25;;;;;;;0.20;0.20;;;;;;;2.21;60.92;102246.63;5113582;28;20033;-82
2023/02/26 03:18:09;;;;;;;0.20;0.20;;;;;;;2.22;60.99;102253.66;5115689;28;20455;-82
2023/02/26 03:20:46;;;;;;;0.20;0.20;;;;;;;2.18;61.48;102245.63;5105054;28;20374;-83
2023/02/26 03:23:19;;;;;;;0.20;0.20;;;;;;;2.15;61.36;102246.41;5114982;28;20020;-82
2023/02/26 03:36:41;;;;;;;0.20;0.20;;;;;;;2.01;61.83;102260.69;5128055;27;1133128;-84
2023/02/26 03:39:23;;;;;;;0.10;0.10;;;;;;;1.98;61.64;102269.31;5131134;27;20813;-84
2023/02/26 03:42:02;;;;;;;0.20;0.20;;;;;;;1.96;61.73;102275.28;5133392;27;20027;-85
2023/02/26 03:44:36;;;;;;;0.20;0.20;;;;;;;1.90;61.81;102276.84;5126437;27;20020;-84
2023/02/26 03:47:07;;;;;;;0.10;0.10;;;;;;;1.86;62.11;102280.19;5123800;28;20098;-84
2023/02/26 03:49:40;;;;;;;0.20;0.20;;;;;;;1.84;62.10;102281.81;5116755;27;20043;-85
2023/02/26 03:52:07;;;;;;;0.10;0.10;;;;;;;1.78;62.24;102284.19;5118807;28;20023;-84
2023/02/26 03:54:39;;;;;;;0.10;0.10;;;;;;;1.80;62.44;102284.28;5146898;27;20023;-83
2023/02/26 03:57:06;;;;;;;0.20;0.20;;;;;;;1.75;62.35;102294.53;5142576;28;20031;-83
2023/02/26 03:59:34;;;;;;;0.10;0.10;;;;;;;1.73;62.45;102289.28;5154460;28;20059;-84
2023/02/26 04:02:07;;;;;;;0.20;0.20;;;;;;;1.71;62.64;102295.25;5126040;27;20165;-84
2023/02/26 04:05:00;;;;;;;0.20;0.20;;;;;;;1.75;62.58;102294.53;5109635;28;20035;-85
2023/02/26 04:07:26;;;;;;;0.20;0.20;;;;;;;1.67;62.34;102303.78;5118299;28;20038;-85
2023/02/26 04:09:53;;;;;;;0.10;0.10;;;;;;;1.65;62.32;102300.25;5117210;27;20027;-83
2023/02/26 04:12:24;;;;;;;0.20;0.20;;;;;;;1.64;62.24;102303.69;5112091;28;20032;-84
2023/02/26 04:14:51;;;;;;;0.20;0.20;;;;;;;1.60;62.55;102307.88;5123781;27;20034;-84
2023/02/26 04:17:17;;;;;;;0.20;0.20;;;;;;;1.59;62.28;102317.44;5115623;27;20024;-83
2023/02/26 04:19:43;;;;;;;0.10;0.10;;;;;;;1.56;62.49;102317.31;5119296;28;20047;-83
2023/02/26 04:22:10;;;;;;;0.10;0.10;;;;;;;1.55;62.37;102319.88;5127640;28;20106;-85
2023/02/26 04:24:36;;;;;;;0.20;0.20;;;;;;;1.53;62.59;102327.63;5130215;27;20092;-84
2023/02/26 04:27:02;;;;;;;0.20;0.20;;;;;;;1.52;62.27;102330.19;5130369;27;20038;-85
2023/02/26 04:29:28;;;;;;;0.20;0.20;;;;;;;1.49;62.48;102327.47;5122649;28;20032;-85
2023/02/26 04:31:54;;;;;;;0.20;0.20;;;;;;;1.48;62.87;102333.50;5123359;28;20031;-85
2023/02/26 04:34:21;;;;;;;0.20;0.20;;;;;;;1.46;62.35;102333.44;5114840;28;20024;-86
2023/02/26 04:36:47;;;;;;;0.20;0.20;;;;;;;1.44;63.06;102335.97;5132146;28;20037;-84
2023/02/26 04:39:13;;;;;;;0.20;0.20;;;;;;;1.43;62.51;102335.91;5133532;28;20034;-84
2023/02/26 04:41:39;;;;;;;0.20;0.20;;;;;;;1.41;62.59;102338.47;5131923;27;20023;-85
2023/02/26 04:44:06;;;;;;;0.20;0.20;;;;;;;1.39;62.32;102339.25;5114804;28;20406;-84
2023/02/26 04:46:32;;;;;;;0.20;0.20;;;;;;;1.39;62.55;102341.84;5123256;28;20108;-84
2023/02/26 04:48:59;;;;;;;0.10;0.10;;;;;;;1.38;62.43;102348.78;5102729;28;20100;-84
2023/02/26 04:51:25;;;;;;;0.10;0.10;;;;;;;1.36;62.52;102349.53;5098046;28;20036;-85
2023/02/26 04:53:51;;;;;;;0.10;0.10;;;;;;;1.35;62.64;102347.78;5116093;28;20110;-84
2023/02/26 04:56:17;;;;;;;0.20;0.20;;;;;;;1.34;62.65;102349.47;5101845;28;20222;-84
2023/02/26 04:58:44;;;;;;;0.20;0.20;;;;;;;1.32;62.97;102353.78;5095547;28;20032;-85
2023/02/26 05:01:12;;;;;;;0.15;0.15;;;;;;;1.29;62.59;102348.41;5095556;28;20402;-84
2023/02/26 05:03:38;;;;;;;0.20;0.20;;;;;;;1.25;62.75;102363.03;5114445;28;20035;-84
2023/02/26 05:06:04;;;;;;;0.20;0.20;;;;;;;1.22;62.64;102347.25;5118082;28;20019;-84
2023/02/26 05:08:30;;;;;;;0.10;0.10;;;;;;;1.19;62.71;102352.34;5129157;28;20054;-83
2023/02/26 05:10:56;;;;;;;0.20;0.20;;;;;;;1.17;62.66;102372.25;5138436;28;20011;-83
2023/02/26 05:13:23;;;;;;;0.20;0.20;;;;;;;1.16;62.90;102373.09;5109477;28;20100;-85
2023/02/26 05:15:49;;;;;;;0.20;0.20;;;;;;;1.15;63.09;102376.53;5110066;28;20103;-85
2023/02/26 05:18:15;;;;;;;0.10;0.10;;;;;;;1.14;62.84;102374.75;5104182;28;20028;-85
2023/02/26 05:20:41;;;;;;;0.17;0.17;;;;;;;1.14;63.16;102379.97;5115744;28;20066;-85
2023/02/26 05:23:07;;;;;;;0.13;0.13;;;;;;;1.13;63.15;102383.41;5102284;28;20027;-84
2023/02/26 05:25:33;;;;;;;0.20;0.20;;;;;;;1.12;62.86;102389.44;5103677;28;20024;-85
2023/02/26 05:27:59;;;;;;;0.10;0.10;;;;;;;1.09;62.96;102392.81;5118534;28;20026;-84
2023/02/26 05:30:25;;;;;;;0.10;0.10;;;;;;;1.11;63.45;102400.72;5127620;28;20026;-83
2023/02/26 05:32:51;;;;;;;0.10;0.10;;;;;;;1.09;63.01;102397.16;5123240;28;20020;-83
2023/02/26 05:35:17;;;;;;;0.20;0.20;;;;;;;1.07;63.00;102404.00;5117778;28;20062;-85
2023/02/26 05:37:43;;;;;;;0.10;0.10;;;;;;;1.05;62.94;102413.50;5100918;28;20450;-84
2023/02/26 05:40:10;;;;;;;0.20;0.20;;;;;;;1.04;63.38;102414.34;5116502;28;20449;-86
2023/02/26 05:42:38;;;;;;;0.20;0.20;;;;;;;1.01;63.08;102429.84;5102937;28;20028;-85
2023/02/26 05:45:05;;;;;;;0.20;0.20;;;;;;;0.99;63.29;102416.72;5109525;28;20031;-84
2023/02/26 05:47:33;;;;;;;0.20;0.20;;;;;;;0.98;63.34;102429.72;5095029;28;20459;-84
2023/02/26 05:49:59;;;;;;;0.20;0.20;;;;;;;0.95;63.00;102425.25;5094706;28;20049;-85
2023/02/26 05:52:25;;;;;;;0.20;0.20;;;;;;;0.93;63.07;102427.78;5105707;28;20077;-86
2023/02/26 05:54:51;;;;;;;0.10;0.10;;;;;;;0.92;63.12;102426.00;5114230;28;20399;-85
2023/02/26 05:57:17;;;;;;;0.20;0.20;;;;;;;0.90;63.34;102432.88;5106375;28;20440;-85
2023/02/26 05:59:43;;;;;;;0.20;0.20;;;;;;;0.90;63.38;102443.31;5094352;28;20398;-86
2023/02/26 06:02:09;;;;;;;0.10;0.10;;;;;;;0.88;62.93;102444.06;5109606;28;20161;-85
2023/02/26 06:04:35;;;;;;;0.20;0.20;;;;;;;0.85;63.26;102450.03;5094481;28;20039;-84
2023/02/26 06:07:02;;;;;;;0.20;0.20;;;;;;;0.84;62.93;102456.06;5112765;28;20599;-85
2023/02/26 06:09:28;;;;;;;0.20;0.20;;;;;;;0.82;63.00;102454.22;5116958;28;20027;-84
2023/02/26 06:11:54;;;;;;;0.20;0.20;;;;;;;0.80;63.25;102460.25;5109421;28;20023;-84
2023/02/26 06:14:20;;;;;;;0.20;0.20;;;;;;;0.80;63.24;102456.75;5108192;28;20475;-85
2023/02/26 06:16:46;;;;;;;0.20;0.20;;;;;;;0.78;63.34;102464.50;5100902;28;20428;-85
2023/02/26 06:19:12;;;;;;;0.20;0.20;;;;;;;0.75;62.82;102463.50;5115456;28;20379;-85
2023/02/26 06:21:38;;;;;;;0.10;0.10;;;;;;;0.74;62.96;102459.09;5100086;28;20112;-86
2023/02/26 06:24:05;;;;;;;0.20;0.20;;;;;;;0.73;62.98;102459.91;5103709;28;20052;-85
2023/02/26 06:26:31;;;;;;;0.13;0.13;;;;;;;0.69;63.42;102463.19;5094076;28;20115;-83
2023/02/26 06:28:57;;;;;;;0.10;0.10;;;;;;;0.68;63.29;102462.28;5101452;28;20027;-84
2023/02/26 06:31:23;;;;;;;0.20;0.20;;;;;;;0.67;63.68;102464.84;5113202;28;20036;-85
2023/02/26 06:33:49;;;;;;;0.10;0.10;;;;;;;0.66;63.35;102468.25;5099586;28;20031;-83
2023/02/26 06:36:16;;;;;;;0.10;0.10;;;;;;;0.64;63.52;102469.06;5113671;28;20047;-83
2023/02/26 06:38:44;;;;;;;0.10;0.10;;;;;;;0.62;63.21;102481.19;5114059;28;20051;-84
2023/02/26 06:41:10;;;;;;;0.20;0.20;;;;;;;0.61;63.57;102487.22;5131214;28;20008;-84
2023/02/26 06:43:36;;;;;;;4.30;2.40;;;;;;;0.61;63.04;102486.28;5134880;28;20055;-84
2023/02/26 06:46:02;;;;;;;0.10;0.10;;;;;;;0.61;63.42;102502.84;5126203;28;20502;-84
2023/02/26 06:48:28;;;;;;;0.20;0.20;;;;;;;0.60;63.23;102503.69;5125077;28;20378;-84
2023/02/26 06:50:55;;;;;;;0.10;0.10;;;;;;;0.61;63.63;102501.94;5115381;28;20028;-86
2023/02/26 06:53:21;;;;;;;0.10;0.10;;;;;;;0.63;63.80;102502.94;5095293;28;20107;-84
2023/02/26 06:55:50;;;;;;;2.63;2.17;;;;;;;0.66;63.85;102516.13;5102351;28;20032;-84
2023/02/26 06:58:17;;;;;;;0.20;0.20;;;;;;;0.65;63.86;102511.72;5113849;28;20055;-84
2023/02/26 07:00:43;;;;;;;0.20;0.20;;;;;;;0.66;64.08;102523.03;5105037;28;20410;-85
2023/02/26 07:03:12;;;;;;;0.10;0.10;;;;;;;0.71;64.16;102529.38;5093212;28;20035;-85
2023/02/26 07:05:39;;;;;;;0.20;0.20;;;;;;;0.70;63.66;102532.78;5108848;28;20021;-84
2023/02/26 07:08:05;;;;;;;0.13;0.13;;;;;;;0.73;63.94;102533.84;5138640;28;20020;-84
2023/02/26 07:10:33;;;;;;;0.10;0.10;;;;;;;0.77;63.95;102534.88;5123674;28;20011;-83
2023/02/26 07:12:59;;;;;;;0.10;0.10;;;;;;;0.80;63.72;102541.13;5121677;28;20066;-84
2023/02/26 07:15:26;;;;;;;0.20;0.20;;;;;;;0.83;63.03;102536.91;5115190;28;20028;-85
2023/02/26 07:17:52;;;;;;;0.20;0.20;;;;;;;0.88;63.47;102538.88;5100880;28;20118;-84
2023/02/26 07:20:18;;;;;;;0.20;0.20;;;;;;;0.93;62.81;102542.59;5095785;28;20111;-85
2023/02/26 07:22:45;;;;;;;0.20;0.20;;;;;;;0.99;63.33;102546.34;5113957;28;20482;-86
2023/02/26 07:25:12;;;;;;;0.20;0.20;;;;;;;1.05;62.73;102551.88;5113880;28;20110;-84
2023/02/26 07:27:38;;;;;;;0.20;0.20;;;;;;;1.10;62.49;102559.06;5114011;28;20042;-85
2023/02/26 07:30:07;;;;;;;0.20;0.20;;;;;;;1.19;62.58;102560.34;5113383;28;20043;-85
2023/02/26 07:32:33;;;;;;;0.10;0.10;;;;;;;1.25;62.40;102561.50;5112100;28;20031;-86
2023/02/26 07:34:59;;;;;;;0.20;0.20;;;;;;;1.33;62.39;102568.78;5112072;28;20501;-85
2023/02/26 07:37:25;;;;;;;0.20;0.20;;;;;;;1.37;62.12;102570.72;5111296;28;20149;-85
2023/02/26 07:39:51;;;;;;;0.20;0.20;;;;;;;1.43;62.06;102571.00;5114851;28;20028;-85
2023/02/26 07:42:17;;;;;;;0.20;0.20;;;;;;;1.47;61.56;102578.16;5115532;28;20399;-85
2023/02/26 07:44:44;;;;;;;0.10;0.10;;;;;;;1.55;61.50;102579.38;5113699;28;20209;-85
2023/02/26 07:47:10;;;;;;;0.10;0.10;;;;;;;1.61;61.37;102582.28;5111059;28;20110;-84
2023/02/26 07:49:36;;;;;;;0.20;0.20;;;;;;;1.68;61.04;102593.00;5116181;28;20035;-85
2023/02/26 07:52:04;;;;;;;0.20;0.20;;;;;;;1.75;61.17;102595.06;5122038;28;20487;-85
2023/02/26 07:54:30;;;;;;;0.10;0.10;;;;;;;1.81;61.31;102584.88;5112509;28;20475;-84
2023/02/26 07:56:56;;;;;;;0.20;0.20;;;;;;;1.87;61.47;102595.63;5113083;28;20067;-85
2023/02/26 07:59:22;;;;;;;0.20;0.20;;;;;;;1.92;61.00;102599.31;5115068;28;20043;-86
2023/02/26 08:01:48;;;;;;;0.10;0.10;;;;;;;2.00;61.07;102604.00;5116323;28;20051;-84
2023/02/26 08:04:14;;;;;;;0.10;0.10;;;;;;;2.05;60.94;102605.97;5114145;28;20081;-85
2023/02/26 08:06:41;;;;;;;0.20;0.20;;;;;;;2.10;60.71;102603.56;5109718;28;20023;-84
2023/02/26 08:09:07;;;;;;;0.10;0.10;;;;;;;2.17;60.70;102610.84;5097447;28;20078;-85
2023/02/26 08:11:35;;;;;;;0.20;0.20;;;;;;;2.24;60.46;102614.63;5108131;28;20031;-84
2023/02/26 08:14:02;;;;;;;0.17;0.17;;;;;;;2.31;60.54;102610.56;5122722;28;20031;-85
2023/02/26 08:16:28;;;;;;;0.20;0.20;;;;;;;2.36;60.49;102611.66;5123867;28;20100;-86
2023/02/26 08:18:54;;;;;;;0.20;0.20;;;;;;;2.42;60.41;102617.13;5108910;28;20027;-85
2023/02/26 08:21:20;;;;;;;0.20;0.20;;;;;;;2.50;60.50;102623.56;5113234;28;20043;-86
2023/02/26 08:23:47;;;;;;;0.10;0.10;;;;;;;2.58;60.36;102627.41;5116077;28;20306;-86
2023/02/26 08:26:14;;;;;;;0.20;0.20;;;;;;;2.63;60.04;102621.47;5109046;28;20074;-85
2023/02/26 08:28:40;;;;;;;0.17;0.17;;;;;;;2.70;59.55;102623.50;5114172;28;20043;-84
2023/02/26 08:31:06;;;;;;;0.10;0.10;;;;;;;2.79;59.38;102623.91;5116128;28;20030;-86
2023/02/26 08:33:33;;;;;;;0.10;0.10;;;;;;;2.84;58.58;102627.59;5116003;28;20439;-86
2023/02/26 08:36:00;;;;;;;0.20;0.20;;;;;;;2.98;58.92;102629.84;5115383;28;20031;-86
2023/02/26 08:38:28;;;;;;;0.10;0.10;;;;;;;3.08;58.86;102634.66;5118258;28;20031;-85
2023/02/26 08:40:55;;;;;;;0.10;0.10;;;;;;;3.15;56.95;102639.28;5129974;28;20039;-86
2023/02/26 08:43:21;;;;;;;0.20;0.20;;;;;;;3.28;58.51;102645.91;5138433;28;20079;-85
2023/02/26 08:45:59;;;;;;;0.10;0.10;;;;;;;3.46;57.76;102644.84;5137921;28;20040;-85
2023/02/26 08:48:25;;;;;;;0.13;0.13;;;;;;;3.51;57.42;102652.03;5127137;28;20088;-86
2023/02/26 08:50:51;;;;;;;0.10;0.10;;;;;;;3.58;56.79;102657.50;5119913;28;20024;-86
2023/02/26 08:53:17;;;;;;;0.10;0.10;;;;;;;3.65;55.82;102656.91;5116509;28;20011;-85
2023/02/26 08:55:48;;;;;;;0.20;0.20;;;;;;;3.79;56.32;102674.06;5116692;28;20038;-85
2023/02/26 08:58:14;;;;;;;0.20;0.20;;;;;;;3.87;56.12;102666.47;5112124;28;20032;-85
2023/02/26 09:00:40;;;;;;;0.20;0.20;;;;;;;3.89;54.78;102664.81;5115350;28;20573;-86
2023/02/26 09:03:06;;;;;;;0.30;0.30;;;;;;;4.03;55.09;102676.69;5115211;28;20019;-84
2023/02/26 09:05:32;;;;;;;0.10;0.10;;;;;;;4.06;54.55;102665.41;5113169;28;20020;-85
2023/02/26 09:07:58;;;;;;;0.10;0.10;;;;;;;4.21;54.02;102670.31;5116252;28;20023;-86
2023/02/26 09:10:24;;;;;;;0.10;0.10;;;;;;;4.25;52.39;102681.81;5112014;28;20024;-84
2023/02/26 09:12:50;;;;;;;0.10;0.10;;;;;;;4.34;52.77;102682.16;5118429;28;20026;-85
2023/02/26 09:15:17;;;;;;;0.10;0.10;;;;;;;4.43;53.41;102678.97;5115076;28;20088;-85
2023/02/26 09:17:43;;;;;;;0.10;0.10;;;;;;;4.54;53.45;102680.22;5115636;28;20701;-86
2023/02/26 09:20:10;;;;;;;0.10;0.10;;;;;;;4.60;51.77;102695.28;5116612;28;20034;-86
2023/02/26 09:22:36;;;;;;;0.20;0.20;;;;;;;4.69;51.47;102690.38;5117947;27;20561;-86
2023/02/26 09:25:04;;;;;;;0.10;0.10;;;;;;;4.74;50.52;102699.28;5117025;28;20111;-85
2023/02/26 09:27:30;;;;;;;0.17;0.17;;;;;;;4.82;50.69;102692.56;5116674;28;20023;-85
2023/02/26 09:29:56;;;;;;;0.10;0.10;;;;;;;4.97;51.72;102696.53;5107517;28;20015;-86
2023/02/26 09:32:25;;;;;;;0.10;0.10;;;;;;;5.07;50.61;102697.72;5111680;28;20364;-85
2023/02/26 09:34:51;;;;;;;0.20;0.20;;;;;;;5.12;49.92;102697.06;5109806;27;20030;-86
2023/02/26 09:37:17;;;;;;;0.10;0.10;;;;;;;5.24;49.61;102700.91;5114955;28;20073;-86
2023/02/26 09:39:44;;;;;;;0.10;0.10;;;;;;;5.32;50.58;102704.66;5112064;28;20502;-85
2023/02/26 09:42:50;;;;;;;0.10;0.10;;;;;;;5.47;50.32;102713.03;5115602;28;20043;-86
2023/02/26 09:45:35;;;;;;;0.13;0.13;;;;;;;5.56;49.56;102708.91;5136767;28;20027;-84
2023/02/26 09:48:04;;;;;;;0.10;0.10;;;;;;;5.57;49.28;102715.94;5138841;28;20031;-86
2023/02/26 09:50:55;;;;;;;0.10;0.10;;;;;;;5.72;49.37;102721.69;5116380;28;20062;-85
2023/02/26 09:56:07;;;;;;;0.10;0.10;;;;;;;5.83;48.97;102719.38;5097117;27;20393;-84
2023/02/26 09:58:37;;;;;;;0.10;0.10;;;;;;;5.94;49.42;102723.22;5093892;28;20032;-81
2023/02/26 10:01:28;;;;;;;2.00;1.85;;;;;;;6.09;48.23;102721.91;5074936;28;20029;-81
2023/02/26 10:10:15;;;;;;;0.10;0.10;;;;;;;6.37;47.35;102728.84;5060329;28;20789;-83
2023/02/26 10:12:43;;;;;;;0.10;0.10;;;;;;;6.40;47.34;102735.94;5054281;28;20121;-84
2023/02/26 10:15:23;;;;;;;0.10;0.10;;;;;;;6.54;46.87;102738.94;5039471;28;20031;-83
2023/02/26 10:21:02;;;;;;;0.10;0.10;;;;;;;6.70;46.90;102743.78;5166837;27;20393;-82
2023/02/26 10:23:50;;;;;;;0.15;0.15;;;;;;;6.81;46.24;102744.06;5161585;27;20035;-83
2023/02/26 10:31:58;;;;;;;0.10;0.10;;;;;;;7.01;45.38;102752.50;5057352;28;20376;-82
2023/02/26 10:35:03;;;;;;;0.10;0.10;;;;;;;7.16;46.29;102759.88;5030877;28;20415;-83
2023/02/26 10:49:04;;;;;;;0.10;0.10;;;;;;;7.20;45.24;102764.41;5120891;27;20166;-83
2023/02/26 10:51:39;;;;;;;0.10;0.10;;;;;;;7.31;45.59;102769.94;5114016;28;20034;-84
2023/02/26 10:54:32;;;;;;;0.10;0.10;;;;;;;7.43;44.64;102764.94;5112324;28;20087;-83
2023/02/26 10:56:58;;;;;;;;;;;;;;;7.57;44.92;102765.28;5112594;28;20016;-84
2023/02/26 10:59:25;;;;;;;0.10;0.10;;;;;;;7.54;45.55;102761.66;5111550;28;19914;-83
2023/02/26 11:01:52;;;;;;;0.10;0.10;;;;;;;7.64;45.81;102768.97;5107802;28;20020;-83
2023/02/26 11:04:22;;;;;;;0.13;0.13;;;;;;;7.70;44.32;102763.81;5100917;28;20020;-83
2023/02/26 11:06:57;;;;;;;0.10;0.10;;;;;;;7.71;45.02;102770.91;5110588;28;20020;-82
2023/02/26 11:12:19;;;;;;;0.10;0.10;;;;;;;7.97;44.13;102778.47;5059161;28;20381;-85
2023/02/26 11:14:47;;;;;;;0.10;0.10;;;;;;;8.02;45.19;102775.94;5036520;28;20089;-84
2023/02/26 11:17:18;;;;;;;0.10;0.10;;;;;;;8.11;43.97;102773.50;5039217;28;20022;-84
2023/02/26 11:19:58;;;;;;;0.10;0.10;;;;;;;8.24;43.81;102766.75;5033586;28;20033;-85
2023/02/26 11:22:29;;;;;;;0.10;0.10;;;;;;;8.26;43.79;102768.56;5032473;28;20028;-85
2023/02/26 11:24:56;;;;;;;0.10;0.10;;;;;;;8.35;43.40;102764.28;5033443;28;20391;-85
2023/02/26 11:27:29;;;;;;;0.10;0.10;;;;;;;8.35;43.50;102765.22;5033626;28;20104;-87
2023/02/26 11:30:01;;;;;;;0.10;0.10;;;;;;;8.34;42.04;102771.34;5033292;28;20080;-85
2023/02/26 11:32:34;;;;;;;0.17;0.17;;;;;;;8.37;42.95;102768.78;5033671;28;20026;-85
2023/02/26 11:35:00;;;;;;;0.20;0.20;;;;;;;8.31;42.95;102768.66;5031527;28;20057;-84
2023/02/26 11:37:34;;;;;;;0.20;0.20;;;;;;;8.24;42.77;102761.47;5033080;28;20091;-84
2023/02/26 11:40:13;;;;;;;0.10;0.10;;;;;;;8.16;43.59;102763.03;5046092;28;20026;-84
2023/02/26 11:42:48;;;;;;;0.10;0.10;;;;;;;8.21;43.09;102764.03;5042629;28;20512;-82
2023/02/26 11:45:17;;;;;;;0.20;0.20;;;;;;;8.29;44.02;102765.09;5029861;28;20083;-84
2023/02/26 11:47:45;;;;;;;0.10;0.10;;;;;;;8.36;43.44;102764.34;5030933;28;20026;-83
2023/02/26 11:50:17;;;;;;;0.10;0.10;;;;;;;8.45;41.92;102766.28;5030295;28;20093;-84
2023/02/26 11:52:47;;;;;;;0.17;0.17;;;;;;;8.63;42.40;102760.47;5030298;28;20084;-85
2023/02/26 11:55:31;;;;;;;0.73;0.73;;;;;;;8.85;43.01;102760.91;5031290;28;20100;-84
2023/02/26 11:57:58;;;;;;;0.10;0.10;;;;;;;8.93;42.69;102753.97;5042794;28;20022;-84
2023/02/26 12:00:35;;;;;;;0.10;0.10;;;;;;;9.18;42.79;102755.31;5039200;28;20022;-85
2023/02/26 12:03:06;;;;;;;0.10;0.10;;;;;;;9.20;40.31;102753.56;5033867;28;20038;-86
2023/02/26 12:05:33;;;;;;;0.10;0.10;;;;;;;9.27;41.47;102746.63;5033711;28;20091;-84
2023/02/26 12:08:01;;;;;;;0.10;0.10;;;;;;;9.23;41.39;102752.72;5032077;28;20021;-85
2023/02/26 12:10:39;;;;;;;0.10;0.10;;;;;;;9.27;41.23;102748.38;5032008;28;20030;-87
2023/02/26 12:13:26;;;;;;;0.10;0.10;;;;;;;9.25;41.98;102761.56;5030170;28;20056;-85
2023/02/26 12:16:16;;;;;;;0.20;0.20;;;;;;;9.30;41.59;102748.44;5029374;28;20029;-85
2023/02/26 12:18:54;;;;;;;0.20;0.20;;;;;;;9.29;41.45;102742.22;5031775;28;20499;-84
2023/02/26 12:21:39;;;;;;;0.10;0.10;;;;;;;9.39;42.22;102737.97;5034083;28;20029;-85
2023/02/26 12:24:38;;;;;;;0.10;0.10;;;;;;;9.49;42.01;102747.81;5034932;28;20053;-85
2023/02/26 12:30:22;;;;;;;0.10;0.10;;;;;;;9.68;41.63;102749.00;5115035;27;1215858;-85
2023/02/26 12:36:02;;;;;;;0.10;0.10;;;;;;;9.89;41.24;102739.56;5073619;28;20391;-85
2023/02/26 12:38:49;;;;;;;0.10;0.10;;;;;;;9.94;40.73;102735.22;5047898;28;20555;-86
2023/02/26 12:41:26;;;;;;;0.10;0.10;;;;;;;10.03;41.47;102738.00;5053340;28;20028;-83
2023/02/26 12:44:02;;;;;;;0.10;0.10;;;;;;;10.13;41.08;102743.41;5050685;28;20052;-85
2023/02/26 12:49:41;;;;;;;0.10;0.10;;;;;;;10.46;40.76;102747.38;5122918;27;20381;-84
2023/02/26 12:52:23;;;;;;;0.10;0.10;;;;;;;10.47;39.61;102741.19;5132011;28;20073;-87
2023/02/26 12:55:20;;;;;;;0.10;0.10;;;;;;;10.52;39.90;102750.97;5075206;28;20071;-85
2023/02/26 13:01:11;;;;;;;0.15;0.15;;;;;;;10.14;39.25;102751.41;5100352;27;20383;-84
2023/02/26 13:04:41;;;;;;;;;;;;;;;;;;;;;
2023/02/26 13:20:54;;;;;;;0.10;0.10;;;;;;;9.85;41.50;102751.88;5110538;27;20125;-85
2023/02/26 13:23:23;;;;;;;0.10;0.10;;;;;;;10.04;41.11;102753.03;5106353;28;20115;-86
2023/02/26 13:25:55;;;;;;;0.10;0.10;;;;;;;10.10;41.16;102746.03;5103915;27;20081;-83
2023/02/26 13:28:38;;;;;;;0.10;0.10;;;;;;;10.04;41.43;102739.78;5098944;28;20035;-83
2023/02/26 13:31:18;;;;;;;0.20;0.20;;;;;;;10.01;41.51;102745.03;5101392;28;20035;-83